createdAt,value
2023-06-17T11:18:43.548Z,99778.51
2023-06-17T11:21:11.686Z,99777.03
2023-06-17T11:23:40.250Z,99777.27
2023-06-17T11:26:08.798Z,99772.80
2023-06-17T11:28:40.885Z,99769.80
2023-06-17T11:31:09.453Z,99770.62
2023-06-17T11:33:40.016Z,99768.02
2023-06-17T11:36:11.573Z,99769.55
2023-06-17T11:38:39.385Z,99768.43
2023-06-17T11:41:07.598Z,99769.30
2023-06-17T11:43:35.553Z,99773.73
2023-06-17T11:46:04.146Z,99770.45
2023-06-17T11:48:35.594Z,99764.27
2023-06-17T11:51:03.467Z,99762.27
2023-06-17T11:53:38.100Z,99762.08
2023-06-17T11:56:09.470Z,99751.74
2023-06-17T11:58:41.295Z,99751.58
2023-06-17T12:01:09.577Z,99758.44
2023-06-17T12:03:38.327Z,99758.77
2023-06-17T12:06:06.344Z,99753.81
2023-06-17T12:08:34.788Z,99751.08
2023-06-17T12:11:06.889Z,99744.02
2023-06-17T12:13:39.062Z,99739.05
2023-06-17T12:16:13.225Z,99741.17
2023-06-17T12:18:47.843Z,99744.05
2023-06-17T12:21:15.554Z,99741.64
2023-06-17T12:23:44.519Z,99730.10
2023-06-17T12:26:13.137Z,99729.25
2023-06-17T12:28:41.712Z,99728.05
2023-06-17T12:31:09.981Z,99728.29
2023-06-17T12:33:38.136Z,99724.14
2023-06-17T12:36:06.668Z,99729.91
2023-06-17T12:38:34.407Z,99730.83
2023-06-17T12:41:27.430Z,99722.59
2023-06-17T12:43:55.135Z,99714.45
2023-06-17T12:46:23.148Z,99715.87
2023-06-17T12:48:51.778Z,99715.17
2023-06-17T12:51:19.441Z,99715.11
2023-06-17T12:53:47.320Z,99716.30
2023-06-17T12:56:14.971Z,99711.14
2023-06-17T12:58:42.734Z,99710.60
2023-06-17T13:01:10.682Z,99717.92
2023-06-17T13:03:38.601Z,99717.27
2023-06-17T13:06:06.645Z,99715.59
2023-06-17T13:08:35.192Z,99714.66
2023-06-17T13:11:02.786Z,99718.44
2023-06-17T13:13:32.191Z,99720.91
2023-06-17T13:15:59.849Z,99719.61
2023-06-17T13:18:27.523Z,99720.22
2023-06-17T13:20:55.196Z,99720.56
2023-06-17T13:23:22.817Z,99715.67
2023-06-17T13:25:50.419Z,99716.27
2023-06-17T13:28:20.103Z,99713.61
2023-06-17T13:30:47.867Z,99710.04
2023-06-17T13:33:15.631Z,99710.95
2023-06-17T13:35:43.392Z,99712.77
2023-06-17T13:38:10.948Z,99717.29
2023-06-17T13:40:38.717Z,99719.21
2023-06-17T13:43:06.684Z,99715.73
2023-06-17T13:45:34.366Z,99707.70
2023-06-17T13:48:02.062Z,99706.38
2023-06-17T13:50:29.785Z,99709.55
2023-06-17T13:53:00.208Z,99706.47
2023-06-17T13:55:30.428Z,99703.71
2023-06-17T13:57:58.969Z,99701.59
2023-06-17T14:00:26.682Z,99700.94
2023-06-17T14:02:54.837Z,99705.20
2023-06-17T14:05:22.494Z,99704.23
2023-06-17T14:07:50.145Z,99712.77
2023-06-17T14:10:17.756Z,99724.73
2023-06-17T14:12:45.265Z,99722.88
2023-06-17T14:15:12.773Z,99726.37
2023-06-17T14:17:40.364Z,99727.65
2023-06-17T14:20:08.477Z,99729.75
2023-06-17T14:22:36.063Z,99728.27
2023-06-17T14:25:03.934Z,99723.15
2023-06-17T14:27:37.614Z,99722.34
2023-06-17T14:30:05.705Z,99720.40
2023-06-17T14:32:33.462Z,99724.42
2023-06-17T14:35:02.417Z,99724.38
2023-06-17T14:37:30.430Z,99724.34
2023-06-17T14:39:57.940Z,99727.52
2023-06-17T14:42:25.703Z,99730.55
2023-06-17T14:44:53.430Z,99735.66
2023-06-17T14:47:21.979Z,99764.61
2023-06-17T14:49:49.797Z,99749.91
2023-06-17T14:52:17.530Z,99744.86
2023-06-17T14:54:45.218Z,99748.05
2023-06-17T14:57:13.791Z,99756.62
2023-06-17T14:59:41.541Z,99754.75
2023-06-17T15:02:48.278Z,99752.62
2023-06-17T15:05:16.857Z,99751.91
2023-06-17T15:07:44.712Z,99751.41
2023-06-17T15:10:12.452Z,99748.23
2023-06-17T15:12:43.260Z,99745.08
2023-06-17T15:15:11.789Z,99742.92
2023-06-17T15:17:39.725Z,99742.84
2023-06-17T15:20:07.607Z,99743.92
2023-06-17T15:22:35.470Z,99738.19
2023-06-17T15:25:03.363Z,99737.38
2023-06-17T15:27:31.165Z,99737.05
2023-06-17T15:29:58.951Z,99737.56
2023-06-17T15:32:26.547Z,99739.40
2023-06-17T15:34:55.216Z,99741.91
2023-06-17T15:37:22.834Z,99741.27
2023-06-17T15:39:51.113Z,99741.35
2023-06-17T15:42:18.630Z,99738.14
2023-06-17T15:44:46.139Z,99736.98
2023-06-17T15:47:14.171Z,99737.79
2023-06-17T15:49:42.085Z,99737.38
2023-06-17T15:52:09.792Z,99739.89
2023-06-17T15:54:37.480Z,99739.70
2023-06-17T15:57:06.331Z,99742.47
2023-06-17T15:59:34.557Z,99748.30
2023-06-17T16:02:02.394Z,99745.14
2023-06-17T16:04:34.515Z,99749.41
2023-06-17T16:07:03.313Z,99750.76
2023-06-17T16:09:32.614Z,99748.24
2023-06-17T16:12:00.664Z,99749.22
2023-06-17T16:14:29.048Z,99753.81
2023-06-17T16:16:57.350Z,99754.80
2023-06-17T16:19:26.852Z,99756.86
2023-06-17T16:21:55.156Z,99755.53
2023-06-17T16:24:23.031Z,99755.65
2023-06-17T16:26:50.809Z,99753.65
2023-06-17T16:29:18.746Z,99756.05
2023-06-17T16:31:46.992Z,99760.32
2023-06-17T16:34:15.165Z,99758.77
2023-06-17T16:36:42.967Z,99761.75
2023-06-17T16:39:11.188Z,99763.38
2023-06-17T16:41:41.899Z,99767.27
2023-06-17T16:44:09.559Z,99771.33
2023-06-17T16:46:37.390Z,99774.73
2023-06-17T16:49:04.985Z,99774.82
2023-06-17T16:51:32.964Z,99779.63
2023-06-17T16:54:03.033Z,99779.59
2023-06-17T16:56:32.248Z,99779.92
2023-06-17T16:58:59.943Z,99775.80
2023-06-17T17:01:28.083Z,99776.99
2023-06-17T17:03:55.619Z,99780.20
2023-06-17T17:06:23.388Z,99778.80
2023-06-17T17:08:51.680Z,99779.42
2023-06-17T17:11:19.500Z,99777.23
2023-06-17T17:13:49.835Z,99782.09
2023-06-17T17:16:18.267Z,99780.87
2023-06-17T17:18:48.873Z,99780.13
2023-06-17T17:21:16.398Z,99782.30
2023-06-17T17:23:44.161Z,99785.48
2023-06-17T17:26:13.692Z,99788.09
2023-06-17T17:28:41.694Z,99789.81
2023-06-17T17:31:09.461Z,99795.09
2023-06-17T17:33:37.947Z,99797.82
2023-06-17T17:36:05.663Z,99799.92
2023-06-17T17:38:33.785Z,99804.13
2023-06-17T17:41:02.013Z,99809.95
2023-06-17T17:43:30.834Z,99814.80
2023-06-17T17:46:00.541Z,99819.62
2023-06-17T17:48:28.218Z,99823.92
2023-06-17T17:50:56.056Z,99823.04
2023-06-17T17:53:24.026Z,99824.12
2023-06-17T17:55:51.697Z,99826.38
2023-06-17T17:58:19.202Z,99828.27
2023-06-17T18:00:47.230Z,99829.75
2023-06-17T18:03:15.161Z,99836.69
2023-06-17T18:05:44.029Z,99838.73
2023-06-17T18:08:12.075Z,99839.16
2023-06-17T18:10:39.886Z,99843.84
2023-06-17T18:13:08.048Z,99851.17
2023-06-17T18:15:35.929Z,99854.46
2023-06-17T18:18:04.040Z,99860.83
2023-06-17T18:20:31.729Z,99867.23
2023-06-17T18:22:59.312Z,99867.66
2023-06-17T18:25:26.943Z,99871.98
2023-06-17T18:27:54.888Z,99870.27
2023-06-17T18:30:22.865Z,99870.48
2023-06-17T18:32:50.724Z,99869.59
2023-06-17T18:35:20.329Z,99870.02
2023-06-17T18:37:48.383Z,99872.34
2023-06-17T18:40:15.982Z,99874.71
2023-06-17T18:42:44.513Z,99874.61
2023-06-17T18:45:12.282Z,99875.73
2023-06-17T18:47:39.953Z,99874.62
2023-06-17T18:50:08.289Z,99874.95
2023-06-17T18:52:36.352Z,99870.44
2023-06-17T18:55:05.049Z,99870.45
2023-06-17T18:57:32.812Z,99869.70
2023-06-17T19:00:00.442Z,99869.48
2023-06-17T19:02:29.403Z,99869.23
2023-06-17T19:04:58.900Z,99869.60
2023-06-17T19:07:28.069Z,99871.71
2023-06-17T19:09:55.708Z,99873.87
2023-06-17T19:12:24.014Z,99876.06
2023-06-17T19:14:52.330Z,99875.38
2023-06-17T19:17:21.062Z,99873.92
2023-06-17T19:19:49.453Z,99868.13
2023-06-17T19:22:17.365Z,99872.68
2023-06-17T19:24:45.290Z,99875.89
2023-06-17T19:27:14.435Z,99875.30
2023-06-17T19:29:44.034Z,99879.55
2023-06-17T19:32:11.785Z,99879.39
2023-06-17T19:34:41.200Z,99878.97
2023-06-17T19:37:08.884Z,99879.61
2023-06-17T19:39:36.749Z,99882.08
2023-06-17T19:42:04.635Z,99886.17
2023-06-17T19:44:34.612Z,99887.25
2023-06-17T19:47:02.209Z,99889.66
2023-06-17T19:49:29.856Z,99887.30
2023-06-17T19:51:57.444Z,99889.45
2023-06-17T19:54:25.058Z,99888.23
2023-06-17T19:56:53.206Z,99889.09
2023-06-17T19:59:23.706Z,99892.40
2023-06-17T20:01:51.437Z,99892.05
2023-06-17T20:04:19.067Z,99892.30
2023-06-17T20:06:48.013Z,99895.69
2023-06-17T20:09:18.011Z,99895.26
2023-06-17T20:11:47.975Z,99893.38
2023-06-17T20:14:19.009Z,99895.42
2023-06-17T20:16:49.082Z,99895.16
2023-06-17T20:19:18.604Z,99896.00
2023-06-17T20:21:47.823Z,99895.41
2023-06-17T20:24:18.224Z,99897.52
2023-06-17T20:26:48.340Z,99900.69
2023-06-17T20:29:17.669Z,99905.67
2023-06-17T20:31:48.373Z,99906.73
2023-06-17T20:34:17.772Z,99908.14
2023-06-17T20:36:48.156Z,99909.23
2023-06-17T20:39:18.542Z,99908.02
2023-06-17T20:41:47.937Z,99904.37
2023-06-17T20:44:18.086Z,99906.10
2023-06-17T20:46:49.149Z,99907.65
2023-06-17T20:49:19.080Z,99906.31
2023-06-17T20:51:49.043Z,99909.52
2023-06-17T20:54:19.615Z,99908.02
2023-06-17T20:56:49.154Z,99909.19
2023-06-17T20:59:20.123Z,99905.34
2023-06-17T21:01:50.178Z,99902.85
2023-06-17T21:04:19.743Z,99903.43
